sensor_id;sensor_type;location;lat;lon;timestamp;temperature;humidity
14000;DHT22;7075;53.574;10.054;2023-07-09T00:01:57;24.10;99.90
14000;DHT22;7075;53.574;10.054;2023-07-09T00:04:23;24.00;99.90
14000;DHT22;7075;53.574;10.054;2023-07-09T00:07:04;24.00;99.90
14000;DHT22;7075;53.574;10.054;2023-07-09T00:09:30;24.00;99.90
14000;DHT22;7075;53.574;10.054;2023-07-09T00:11:58;23.90;99.90
14000;DHT22;7075;53.574;10.054;2023-07-09T00:14:23;23.80;99.90
14000;DHT22;7075;53.574;10.054;2023-07-09T00:16:49;23.80;99.90
14000;DHT22;7075;53.574;10.054;2023-07-09T00:19:21;23.80;99.90
14000;DHT22;7075;53.574;10.054;2023-07-09T00:21:51;23.80;99.90
14000;DHT22;7075;53.574;10.054;2023-07-09T00:24:21;23.70;99.90
14000;DHT22;7075;53.574;10.054;2023-07-09T00:26:47;23.70;99.90
14000;DHT22;7075;53.574;10.054;2023-07-09T00:29:17;23.70;99.90
14000;DHT22;7075;53.574;10.054;2023-07-09T00:31:43;23.70;99.90
14000;DHT22;7075;53.574;10.054;2023-07-09T00:34:13;23.70;99.90
14000;DHT22;7075;53.574;10.054;2023-07-09T00:36:40;23.60;99.90
14000;DHT22;7075;53.574;10.054;2023-07-09T00:39:22;23.60;99.90
14000;DHT22;7075;53.574;10.054;2023-07-09T00:41:50;23.50;99.90
14000;DHT22;7075;53.574;10.054;2023-07-09T00:44:29;23.50;99.90
14000;DHT22;7075;53.574;10.054;2023-07-09T00:49:29;23.60;99.90
14000;DHT22;7075;53.574;10.054;2023-07-09T00:51:59;23.60;99.90
14000;DHT22;7075;53.574;10.054;2023-07-09T00:54:37;23.60;99.90
14000;DHT22;7075;53.574;10.054;2023-07-09T00:57:12;23.50;99.90
14000;DHT22;7075;53.574;10.054;2023-07-09T00:59:39;23.50;99.90
14000;DHT22;7075;53.574;10.054;2023-07-09T01:02:07;23.50;99.90
14000;DHT22;7075;53.574;10.054;2023-07-09T01:04:34;23.50;99.90
14000;DHT22;7075;53.574;10.054;2023-07-09T01:07:01;23.40;99.90
14000;DHT22;7075;53.574;10.054;2023-07-09T01:09:27;23.40;99.90
14000;DHT22;7075;53.574;10.054;2023-07-09T01:11:53;23.30;99.90
14000;DHT22;7075;53.574;10.054;2023-07-09T01:14:22;23.30;99.90
14000;DHT22;7075;53.574;10.054;2023-07-09T01:16:53;23.30;99.90
14000;DHT22;7075;53.574;10.054;2023-07-09T01:19:25;23.30;99.90
14000;DHT22;7075;53.574;10.054;2023-07-09T01:21:57;23.10;99.90
14000;DHT22;7075;53.574;10.054;2023-07-09T01:24:53;23.10;99.90
14000;DHT22;7075;53.574;10.054;2023-07-09T01:27:31;22.90;99.90
14000;DHT22;7075;53.574;10.054;2023-07-09T01:30:04;23.00;99.90
14000;DHT22;7075;53.574;10.054;2023-07-09T01:32:31;23.10;99.90
14000;DHT22;7075;53.574;10.054;2023-07-09T01:35:00;22.90;99.90
14000;DHT22;7075;53.574;10.054;2023-07-09T01:37:30;22.90;99.90
14000;DHT22;7075;53.574;10.054;2023-07-09T01:39:56;22.90;99.90
14000;DHT22;7075;53.574;10.054;2023-07-09T01:42:24;22.90;99.90
14000;DHT22;7075;53.574;10.054;2023-07-09T01:44:53;22.80;99.90
14000;DHT22;7075;53.574;10.054;2023-07-09T01:47:20;22.80;99.90
14000;DHT22;7075;53.574;10.054;2023-07-09T01:49:57;22.70;99.90
14000;DHT22;7075;53.574;10.054;2023-07-09T01:52:28;22.70;99.90
14000;DHT22;7075;53.574;10.054;2023-07-09T01:54:54;22.70;99.90
14000;DHT22;7075;53.574;10.054;2023-07-09T01:57:28;22.70;99.90
14000;DHT22;7075;53.574;10.054;2023-07-09T02:00:06;22.60;99.90
14000;DHT22;7075;53.574;10.054;2023-07-09T02:02:35;22.70;99.90
14000;DHT22;7075;53.574;10.054;2023-07-09T02:05:01;22.70;99.90
14000;DHT22;7075;53.574;10.054;2023-07-09T02:07:33;22.70;99.90
14000;DHT22;7075;53.574;10.054;2023-07-09T02:09:59;22.40;99.90
14000;DHT22;7075;53.574;10.054;2023-07-09T02:12:26;22.40;99.90
14000;DHT22;7075;53.574;10.054;2023-07-09T02:14:53;22.50;99.90
14000;DHT22;7075;53.574;10.054;2023-07-09T02:17:19;22.60;99.90
14000;DHT22;7075;53.574;10.054;2023-07-09T02:19:44;22.60;99.90
14000;DHT22;7075;53.574;10.054;2023-07-09T02:22:11;22.60;99.90
14000;DHT22;7075;53.574;10.054;2023-07-09T02:24:38;22.60;99.90
14000;DHT22;7075;53.574;10.054;2023-07-09T02:27:07;22.50;99.90
14000;DHT22;7075;53.574;10.054;2023-07-09T02:29:34;22.40;99.90
14000;DHT22;7075;53.574;10.054;2023-07-09T02:32:02;22.40;99.90
14000;DHT22;7075;53.574;10.054;2023-07-09T02:34:29;22.40;99.90
14000;DHT22;7075;53.574;10.054;2023-07-09T02:36:57;22.40;99.90
14000;DHT22;7075;53.574;10.054;2023-07-09T02:39:24;22.30;99.90
14000;DHT22;7075;53.574;10.054;2023-07-09T02:41:50;22.30;99.90
14000;DHT22;7075;53.574;10.054;2023-07-09T02:44:16;22.30;99.90
14000;DHT22;7075;53.574;10.054;2023-07-09T02:46:43;22.30;99.90
14000;DHT22;7075;53.574;10.054;2023-07-09T02:49:11;22.20;99.90
14000;DHT22;7075;53.574;10.054;2023-07-09T02:51:37;22.10;99.90
14000;DHT22;7075;53.574;10.054;2023-07-09T02:54:04;22.10;99.90
14000;DHT22;7075;53.574;10.054;2023-07-09T02:56:30;22.10;99.90
14000;DHT22;7075;53.574;10.054;2023-07-09T02:58:56;22.10;99.90
14000;DHT22;7075;53.574;10.054;2023-07-09T03:01:22;22.20;99.90
14000;DHT22;7075;53.574;10.054;2023-07-09T03:03:51;22.20;99.90
14000;DHT22;7075;53.574;10.054;2023-07-09T03:06:19;22.20;99.90
14000;DHT22;7075;53.574;10.054;2023-07-09T03:08:45;22.20;99.90
14000;DHT22;7075;53.574;10.054;2023-07-09T03:11:12;22.20;99.90
14000;DHT22;7075;53.574;10.054;2023-07-09T03:13:38;22.10;99.90
14000;DHT22;7075;53.574;10.054;2023-07-09T03:16:05;22.00;99.90
14000;DHT22;7075;53.574;10.054;2023-07-09T03:18:31;21.90;99.90
14000;DHT22;7075;53.574;10.054;2023-07-09T03:20:57;22.00;99.90
14000;DHT22;7075;53.574;10.054;2023-07-09T03:23:23;21.80;99.90
14000;DHT22;7075;53.574;10.054;2023-07-09T03:25:49;21.90;99.90
14000;DHT22;7075;53.574;10.054;2023-07-09T03:28:14;21.80;99.90
14000;DHT22;7075;53.574;10.054;2023-07-09T03:30:42;21.70;99.90
14000;DHT22;7075;53.574;10.054;2023-07-09T03:33:09;21.80;99.90
14000;DHT22;7075;53.574;10.054;2023-07-09T03:35:34;21.80;99.90
14000;DHT22;7075;53.574;10.054;2023-07-09T03:38:01;21.80;99.90
14000;DHT22;7075;53.574;10.054;2023-07-09T03:40:27;21.80;99.90
14000;DHT22;7075;53.574;10.054;2023-07-09T03:42:53;21.60;99.90
14000;DHT22;7075;53.574;10.054;2023-07-09T03:45:19;21.60;99.90
14000;DHT22;7075;53.574;10.054;2023-07-09T03:47:44;21.70;99.90
14000;DHT22;7075;53.574;10.054;2023-07-09T03:50:10;21.70;99.90
14000;DHT22;7075;53.574;10.054;2023-07-09T03:52:37;21.70;99.90
14000;DHT22;7075;53.574;10.054;2023-07-09T03:55:02;21.70;99.90
14000;DHT22;7075;53.574;10.054;2023-07-09T03:57:30;21.70;99.90
14000;DHT22;7075;53.574;10.054;2023-07-09T03:59:56;21.70;99.90
14000;DHT22;7075;53.574;10.054;2023-07-09T04:02:24;21.70;99.90
14000;DHT22;7075;53.574;10.054;2023-07-09T04:04:49;21.70;99.90
14000;DHT22;7075;53.574;10.054;2023-07-09T04:07:16;21.70;99.90
14000;DHT22;7075;53.574;10.054;2023-07-09T04:09:41;21.70;99.90
14000;DHT22;7075;53.574;10.054;2023-07-09T04:12:08;21.60;99.90
14000;DHT22;7075;53.574;10.054;2023-07-09T04:14:34;21.60;99.90
14000;DHT22;7075;53.574;10.054;2023-07-09T04:16:59;21.60;99.90
14000;DHT22;7075;53.574;10.054;2023-07-09T04:19:25;21.60;99.90
14000;DHT22;7075;53.574;10.054;2023-07-09T04:21:51;21.60;99.90
14000;DHT22;7075;53.574;10.054;2023-07-09T04:24:18;21.60;99.90
14000;DHT22;7075;53.574;10.054;2023-07-09T04:26:44;21.60;99.90
14000;DHT22;7075;53.574;10.054;2023-07-09T04:29:11;21.60;99.90
14000;DHT22;7075;53.574;10.054;2023-07-09T04:31:37;21.60;99.90
14000;DHT22;7075;53.574;10.054;2023-07-09T04:34:03;21.60;99.90
14000;DHT22;7075;53.574;10.054;2023-07-09T04:36:29;21.60;99.90
14000;DHT22;7075;53.574;10.054;2023-07-09T04:38:55;21.60;99.90
14000;DHT22;7075;53.574;10.054;2023-07-09T04:41:23;21.50;99.90
14000;DHT22;7075;53.574;10.054;2023-07-09T04:43:49;21.50;99.90
14000;DHT22;7075;53.574;10.054;2023-07-09T04:46:15;21.60;99.90
14000;DHT22;7075;53.574;10.054;2023-07-09T04:48:41;21.60;99.90
14000;DHT22;7075;53.574;10.054;2023-07-09T04:51:06;21.60;99.90
14000;DHT22;7075;53.574;10.054;2023-07-09T04:53:32;21.60;99.90
14000;DHT22;7075;53.574;10.054;2023-07-09T04:55:57;21.60;99.90
14000;DHT22;7075;53.574;10.054;2023-07-09T04:58:23;21.70;99.90
14000;DHT22;7075;53.574;10.054;2023-07-09T05:00:49;21.70;99.90
14000;DHT22;7075;53.574;10.054;2023-07-09T05:03:18;21.70;99.90
14000;DHT22;7075;53.574;10.054;2023-07-09T05:05:45;21.70;99.90
14000;DHT22;7075;53.574;10.054;2023-07-09T05:08:12;21.70;99.90
14000;DHT22;7075;53.574;10.054;2023-07-09T05:10:45;21.70;99.90
14000;DHT22;7075;53.574;10.054;2023-07-09T05:13:12;21.70;99.90
14000;DHT22;7075;53.574;10.054;2023-07-09T05:15:46;21.70;99.90
14000;DHT22;7075;53.574;10.054;2023-07-09T05:18:13;21.80;99.90
14000;DHT22;7075;53.574;10.054;2023-07-09T05:20:40;21.80;99.90
14000;DHT22;7075;53.574;10.054;2023-07-09T05:23:07;21.90;99.90
14000;DHT22;7075;53.574;10.054;2023-07-09T05:25:33;21.90;99.90
14000;DHT22;7075;53.574;10.054;2023-07-09T05:27:58;22.00;99.90
14000;DHT22;7075;53.574;10.054;2023-07-09T05:30:25;22.00;99.90
14000;DHT22;7075;53.574;10.054;2023-07-09T05:32:50;22.00;99.90
14000;DHT22;7075;53.574;10.054;2023-07-09T05:35:19;21.90;99.90
14000;DHT22;7075;53.574;10.054;2023-07-09T05:37:45;21.80;99.90
14000;DHT22;7075;53.574;10.054;2023-07-09T05:40:11;21.90;99.90
14000;DHT22;7075;53.574;10.054;2023-07-09T05:42:38;22.00;99.90
14000;DHT22;7075;53.574;10.054;2023-07-09T05:45:04;22.00;99.90
14000;DHT22;7075;53.574;10.054;2023-07-09T05:47:30;22.10;99.90
14000;DHT22;7075;53.574;10.054;2023-07-09T05:49:55;22.10;99.90
14000;DHT22;7075;53.574;10.054;2023-07-09T05:52:22;22.10;99.90
14000;DHT22;7075;53.574;10.054;2023-07-09T05:54:50;22.10;99.90
14000;DHT22;7075;53.574;10.054;2023-07-09T05:57:16;22.10;99.90
14000;DHT22;7075;53.574;10.054;2023-07-09T05:59:42;22.20;99.90
14000;DHT22;7075;53.574;10.054;2023-07-09T06:02:11;22.20;99.90
14000;DHT22;7075;53.574;10.054;2023-07-09T06:04:37;22.20;99.90
14000;DHT22;7075;53.574;10.054;2023-07-09T06:07:03;22.30;99.90
14000;DHT22;7075;53.574;10.054;2023-07-09T06:09:29;22.30;99.90
14000;DHT22;7075;53.574;10.054;2023-07-09T06:11:55;22.30;99.90
14000;DHT22;7075;53.574;10.054;2023-07-09T06:14:25;22.40;99.90
14000;DHT22;7075;53.574;10.054;2023-07-09T06:16:50;22.40;99.90
14000;DHT22;7075;53.574;10.054;2023-07-09T06:19:16;22.40;99.90
14000;DHT22;7075;53.574;10.054;2023-07-09T06:21:41;22.40;99.90
14000;DHT22;7075;53.574;10.054;2023-07-09T06:24:08;22.50;99.90
14000;DHT22;7075;53.574;10.054;2023-07-09T06:26:34;22.50;99.90
14000;DHT22;7075;53.574;10.054;2023-07-09T06:28:59;22.60;99.90
14000;DHT22;7075;53.574;10.054;2023-07-09T06:31:25;22.60;99.90
14000;DHT22;7075;53.574;10.054;2023-07-09T06:33:51;22.60;99.90
14000;DHT22;7075;53.574;10.054;2023-07-09T06:36:18;22.60;99.90
14000;DHT22;7075;53.574;10.054;2023-07-09T06:38:44;22.70;99.90
14000;DHT22;7075;53.574;10.054;2023-07-09T06:41:10;22.70;99.90
14000;DHT22;7075;53.574;10.054;2023-07-09T06:43:36;22.80;99.90
14000;DHT22;7075;53.574;10.054;2023-07-09T06:46:06;22.80;99.90
14000;DHT22;7075;53.574;10.054;2023-07-09T06:48:32;22.90;99.90
14000;DHT22;7075;53.574;10.054;2023-07-09T06:50:59;22.90;99.90
14000;DHT22;7075;53.574;10.054;2023-07-09T06:53:26;22.90;99.90
14000;DHT22;7075;53.574;10.054;2023-07-09T06:55:52;23.00;99.90
14000;DHT22;7075;53.574;10.054;2023-07-09T06:58:22;23.00;99.90
14000;DHT22;7075;53.574;10.054;2023-07-09T07:00:49;23.10;99.90
14000;DHT22;7075;53.574;10.054;2023-07-09T07:03:15;23.10;99.90
14000;DHT22;7075;53.574;10.054;2023-07-09T07:05:48;23.10;99.90
14000;DHT22;7075;53.574;10.054;2023-07-09T07:08:19;23.10;99.90
14000;DHT22;7075;53.574;10.054;2023-07-09T07:10:47;23.20;99.90
14000;DHT22;7075;53.574;10.054;2023-07-09T07:13:13;23.20;99.90
14000;DHT22;7075;53.574;10.054;2023-07-09T07:15:39;23.30;99.90
14000;DHT22;7075;53.574;10.054;2023-07-09T07:18:06;23.30;99.90
14000;DHT22;7075;53.574;10.054;2023-07-09T07:20:32;23.30;99.90
14000;DHT22;7075;53.574;10.054;2023-07-09T07:22:58;23.40;99.90
14000;DHT22;7075;53.574;10.054;2023-07-09T07:25:24;23.50;99.90
14000;DHT22;7075;53.574;10.054;2023-07-09T07:27:50;23.50;99.90
14000;DHT22;7075;53.574;10.054;2023-07-09T07:30:17;23.50;99.90
14000;DHT22;7075;53.574;10.054;2023-07-09T07:32:45;23.50;99.90
14000;DHT22;7075;53.574;10.054;2023-07-09T07:35:11;23.60;99.90
14000;DHT22;7075;53.574;10.054;2023-07-09T07:37:37;23.60;99.90
14000;DHT22;7075;53.574;10.054;2023-07-09T07:40:03;23.70;99.90
14000;DHT22;7075;53.574;10.054;2023-07-09T07:42:30;23.70;99.90
14000;DHT22;7075;53.574;10.054;2023-07-09T07:44:55;23.70;99.90
14000;DHT22;7075;53.574;10.054;2023-07-09T07:47:21;23.70;99.90
14000;DHT22;7075;53.574;10.054;2023-07-09T07:49:47;23.80;99.90
14000;DHT22;7075;53.574;10.054;2023-07-09T07:52:13;23.80;99.90
14000;DHT22;7075;53.574;10.054;2023-07-09T07:54:38;23.80;99.90
14000;DHT22;7075;53.574;10.054;2023-07-09T07:57:04;23.80;99.90
14000;DHT22;7075;53.574;10.054;2023-07-09T07:59:30;23.80;99.90
14000;DHT22;7075;53.574;10.054;2023-07-09T08:01:58;23.90;99.90
14000;DHT22;7075;53.574;10.054;2023-07-09T08:04:24;23.90;99.90
14000;DHT22;7075;53.574;10.054;2023-07-09T08:06:50;24.00;99.90
14000;DHT22;7075;53.574;10.054;2023-07-09T08:09:16;24.00;99.90
14000;DHT22;7075;53.574;10.054;2023-07-09T08:11:42;24.00;99.90
14000;DHT22;7075;53.574;10.054;2023-07-09T08:14:07;24.00;99.90
14000;DHT22;7075;53.574;10.054;2023-07-09T08:16:33;24.10;99.90
14000;DHT22;7075;53.574;10.054;2023-07-09T08:18:58;24.10;99.90
14000;DHT22;7075;53.574;10.054;2023-07-09T08:21:24;24.20;99.90
14000;DHT22;7075;53.574;10.054;2023-07-09T08:23:49;24.20;99.90
14000;DHT22;7075;53.574;10.054;2023-07-09T08:26:15;24.20;99.90
14000;DHT22;7075;53.574;10.054;2023-07-09T08:28:40;24.30;99.90
14000;DHT22;7075;53.574;10.054;2023-07-09T08:31:06;24.30;99.90
14000;DHT22;7075;53.574;10.054;2023-07-09T08:33:31;24.30;99.90
14000;DHT22;7075;53.574;10.054;2023-07-09T08:35:57;24.30;99.90
14000;DHT22;7075;53.574;10.054;2023-07-09T08:38:23;24.40;99.90
14000;DHT22;7075;53.574;10.054;2023-07-09T08:41:00;24.40;99.90
14000;DHT22;7075;53.574;10.054;2023-07-09T08:43:57;24.50;99.90
14000;DHT22;7075;53.574;10.054;2023-07-09T08:49:20;24.50;99.90
14000;DHT22;7075;53.574;10.054;2023-07-09T08:51:47;24.50;99.90
14000;DHT22;7075;53.574;10.054;2023-07-09T08:54:24;24.60;99.90
14000;DHT22;7075;53.574;10.054;2023-07-09T08:56:50;24.70;99.90
14000;DHT22;7075;53.574;10.054;2023-07-09T08:59:17;24.70;99.90
14000;DHT22;7075;53.574;10.054;2023-07-09T09:01:52;24.80;99.90
14000;DHT22;7075;53.574;10.054;2023-07-09T09:04:29;24.80;99.90
14000;DHT22;7075;53.574;10.054;2023-07-09T09:07:31;24.80;99.90
14000;DHT22;7075;53.574;10.054;2023-07-09T09:10:01;24.90;99.90
14000;DHT22;7075;53.574;10.054;2023-07-09T09:12:38;24.90;99.90
14000;DHT22;7075;53.574;10.054;2023-07-09T09:15:17;24.90;99.90
14000;DHT22;7075;53.574;10.054;2023-07-09T09:17:45;25.00;99.90
14000;DHT22;7075;53.574;10.054;2023-07-09T09:20:19;25.00;99.90
14000;DHT22;7075;53.574;10.054;2023-07-09T09:22:58;25.10;99.90
14000;DHT22;7075;53.574;10.054;2023-07-09T09:25:35;25.20;99.90
14000;DHT22;7075;53.574;10.054;2023-07-09T09:28:04;25.20;99.90
14000;DHT22;7075;53.574;10.054;2023-07-09T09:30:31;25.30;99.90
14000;DHT22;7075;53.574;10.054;2023-07-09T09:33:02;25.30;99.90
14000;DHT22;7075;53.574;10.054;2023-07-09T09:35:41;25.40;99.90
14000;DHT22;7075;53.574;10.054;2023-07-09T09:38:13;25.40;99.90
14000;DHT22;7075;53.574;10.054;2023-07-09T09:40:42;25.50;99.90
14000;DHT22;7075;53.574;10.054;2023-07-09T09:43:14;25.50;99.90
14000;DHT22;7075;53.574;10.054;2023-07-09T09:45:43;25.60;99.90
14000;DHT22;7075;53.574;10.054;2023-07-09T09:48:28;25.60;99.90
14000;DHT22;7075;53.574;10.054;2023-07-09T09:50:55;25.70;99.90
14000;DHT22;7075;53.574;10.054;2023-07-09T09:53:28;25.70;99.90
14000;DHT22;7075;53.574;10.054;2023-07-09T09:55:57;25.70;99.90
14000;DHT22;7075;53.574;10.054;2023-07-09T09:58:29;25.70;99.90
14000;DHT22;7075;53.574;10.054;2023-07-09T10:00:58;25.80;99.90
14000;DHT22;7075;53.574;10.054;2023-07-09T10:03:38;25.80;99.90
14000;DHT22;7075;53.574;10.054;2023-07-09T10:06:29;25.90;99.90
14000;DHT22;7075;53.574;10.054;2023-07-09T10:09:08;25.90;99.90
14000;DHT22;7075;53.574;10.054;2023-07-09T10:11:58;26.00;99.90
14000;DHT22;7075;53.574;10.054;2023-07-09T10:19:56;26.10;99.90
14000;DHT22;7075;53.574;10.054;2023-07-09T10:25:14;26.20;99.90
14000;DHT22;7075;53.574;10.054;2023-07-09T10:30:35;26.30;99.90
14000;DHT22;7075;53.574;10.054;2023-07-09T10:39:20;26.40;99.90
14000;DHT22;7075;53.574;10.054;2023-07-09T10:41:49;26.40;99.90
14000;DHT22;7075;53.574;10.054;2023-07-09T10:44:24;26.50;99.90
14000;DHT22;7075;53.574;10.054;2023-07-09T10:46:56;26.50;99.90
14000;DHT22;7075;53.574;10.054;2023-07-09T10:49:30;26.50;99.90
14000;DHT22;7075;53.574;10.054;2023-07-09T10:52:25;26.60;99.90
14000;DHT22;7075;53.574;10.054;2023-07-09T10:55:30;26.60;99.90
14000;DHT22;7075;53.574;10.054;2023-07-09T11:00:58;26.70;99.90
14000;DHT22;7075;53.574;10.054;2023-07-09T11:03:50;26.80;99.90
14000;DHT22;7075;53.574;10.054;2023-07-09T11:06:29;26.80;99.90
14000;DHT22;7075;53.574;10.054;2023-07-09T11:08:57;26.90;99.90
14000;DHT22;7075;53.574;10.054;2023-07-09T11:11:40;26.90;99.90
14000;DHT22;7075;53.574;10.054;2023-07-09T11:14:25;27.00;99.90
14000;DHT22;7075;53.574;10.054;2023-07-09T11:16:54;27.00;99.90
14000;DHT22;7075;53.574;10.054;2023-07-09T11:19:22;27.10;99.90
14000;DHT22;7075;53.574;10.054;2023-07-09T11:22:22;27.20;99.90
14000;DHT22;7075;53.574;10.054;2023-07-09T11:25:03;27.30;99.90
14000;DHT22;7075;53.574;10.054;2023-07-09T11:27:31;27.40;99.90
14000;DHT22;7075;53.574;10.054;2023-07-09T11:32:47;27.50;99.90
14000;DHT22;7075;53.574;10.054;2023-07-09T11:35:22;27.50;99.90
14000;DHT22;7075;53.574;10.054;2023-07-09T11:37:49;27.60;99.90
14000;DHT22;7075;53.574;10.054;2023-07-09T11:40:15;27.60;99.90
14000;DHT22;7075;53.574;10.054;2023-07-09T11:42:52;27.70;99.90
14000;DHT22;7075;53.574;10.054;2023-07-09T11:45:35;27.90;99.90
14000;DHT22;7075;53.574;10.054;2023-07-09T11:50:48;28.70;99.90
14000;DHT22;7075;53.574;10.054;2023-07-09T11:53:28;29.40;99.90
14000;DHT22;7075;53.574;10.054;2023-07-09T11:55:55;30.00;99.90
14000;DHT22;7075;53.574;10.054;2023-07-09T11:58:21;30.60;99.90
14000;DHT22;7075;53.574;10.054;2023-07-09T12:00:55;31.10;98.90
14000;DHT22;7075;53.574;10.054;2023-07-09T12:03:25;31.50;96.80
14000;DHT22;7075;53.574;10.054;2023-07-09T12:05:54;31.80;96.40
14000;DHT22;7075;53.574;10.054;2023-07-09T12:08:28;31.90;94.20
14000;DHT22;7075;53.574;10.054;2023-07-09T12:10:54;32.00;93.70
14000;DHT22;7075;53.574;10.054;2023-07-09T12:13:21;32.10;93.00
14000;DHT22;7075;53.574;10.054;2023-07-09T12:15:48;32.10;90.40
14000;DHT22;7075;53.574;10.054;2023-07-09T12:18:15;32.20;90.00
14000;DHT22;7075;53.574;10.054;2023-07-09T12:20:52;32.50;86.50
14000;DHT22;7075;53.574;10.054;2023-07-09T12:23:32;32.40;81.60
14000;DHT22;7075;53.574;10.054;2023-07-09T12:26:03;32.30;86.60
14000;DHT22;7075;53.574;10.054;2023-07-09T12:28:29;32.20;86.60
14000;DHT22;7075;53.574;10.054;2023-07-09T12:30:56;32.10;87.80
14000;DHT22;7075;53.574;10.054;2023-07-09T12:33:26;32.20;87.20
14000;DHT22;7075;53.574;10.054;2023-07-09T12:35:59;32.10;82.20
14000;DHT22;7075;53.574;10.054;2023-07-09T12:38:29;31.90;81.80
14000;DHT22;7075;53.574;10.054;2023-07-09T12:40:55;31.80;82.20
14000;DHT22;7075;53.574;10.054;2023-07-09T12:43:41;31.70;78.90
14000;DHT22;7075;53.574;10.054;2023-07-09T12:46:08;31.60;80.90
14000;DHT22;7075;53.574;10.054;2023-07-09T12:48:34;31.60;80.00
14000;DHT22;7075;53.574;10.054;2023-07-09T12:51:00;31.60;77.90
14000;DHT22;7075;53.574;10.054;2023-07-09T12:53:28;31.60;77.00
14000;DHT22;7075;53.574;10.054;2023-07-09T12:55:59;31.70;72.60
14000;DHT22;7075;53.574;10.054;2023-07-09T12:58:28;31.90;72.00
14000;DHT22;7075;53.574;10.054;2023-07-09T13:00:57;32.00;74.80
14000;DHT22;7075;53.574;10.054;2023-07-09T13:03:30;32.10;79.70
14000;DHT22;7075;53.574;10.054;2023-07-09T13:05:58;32.00;78.90
14000;DHT22;7075;53.574;10.054;2023-07-09T13:08:26;31.90;74.30
14000;DHT22;7075;53.574;10.054;2023-07-09T13:10:52;31.80;71.70
14000;DHT22;7075;53.574;10.054;2023-07-09T13:13:20;31.90;68.90
14000;DHT22;7075;53.574;10.054;2023-07-09T13:15:56;32.00;70.40
14000;DHT22;7075;53.574;10.054;2023-07-09T13:18:25;32.10;70.50
14000;DHT22;7075;53.574;10.054;2023-07-09T13:20:52;32.10;75.20
14000;DHT22;7075;53.574;10.054;2023-07-09T13:23:29;32.30;75.80
14000;DHT22;7075;53.574;10.054;2023-07-09T13:25:58;32.50;71.70
14000;DHT22;7075;53.574;10.054;2023-07-09T13:28:28;32.50;68.50
14000;DHT22;7075;53.574;10.054;2023-07-09T13:31:19;32.40;72.30
14000;DHT22;7075;53.574;10.054;2023-07-09T13:33:54;32.30;70.00
14000;DHT22;7075;53.574;10.054;2023-07-09T13:36:26;32.20;67.80
14000;DHT22;7075;53.574;10.054;2023-07-09T13:38:51;32.10;68.70
14000;DHT22;7075;53.574;10.054;2023-07-09T13:41:19;32.30;69.30
14000;DHT22;7075;53.574;10.054;2023-07-09T13:43:48;32.40;69.40
14000;DHT22;7075;53.574;10.054;2023-07-09T13:46:15;32.50;71.30
14000;DHT22;7075;53.574;10.054;2023-07-09T13:48:43;32.70;73.20
14000;DHT22;7075;53.574;10.054;2023-07-09T13:51:22;32.80;69.50
14000;DHT22;7075;53.574;10.054;2023-07-09T13:53:53;33.00;68.80
14000;DHT22;7075;53.574;10.054;2023-07-09T13:56:20;33.00;65.20
14000;DHT22;7075;53.574;10.054;2023-07-09T13:58:45;33.10;67.40
14000;DHT22;7075;53.574;10.054;2023-07-09T14:01:15;33.10;71.50
14000;DHT22;7075;53.574;10.054;2023-07-09T14:03:42;33.10;74.80
14000;DHT22;7075;53.574;10.054;2023-07-09T14:06:13;33.20;75.10
14000;DHT22;7075;53.574;10.054;2023-07-09T14:08:38;33.20;68.20
14000;DHT22;7075;53.574;10.054;2023-07-09T14:11:16;33.20;67.80
14000;DHT22;7075;53.574;10.054;2023-07-09T14:13:43;33.20;68.60
14000;DHT22;7075;53.574;10.054;2023-07-09T14:16:10;33.20;68.40
14000;DHT22;7075;53.574;10.054;2023-07-09T14:18:37;33.20;68.90
14000;DHT22;7075;53.574;10.054;2023-07-09T14:21:11;33.30;69.30
14000;DHT22;7075;53.574;10.054;2023-07-09T14:23:37;33.30;69.80
14000;DHT22;7075;53.574;10.054;2023-07-09T14:26:04;33.30;68.00
14000;DHT22;7075;53.574;10.054;2023-07-09T14:28:30;33.30;64.00
14000;DHT22;7075;53.574;10.054;2023-07-09T14:30:56;33.30;68.70
14000;DHT22;7075;53.574;10.054;2023-07-09T14:33:23;33.30;68.50
14000;DHT22;7075;53.574;10.054;2023-07-09T14:35:49;33.20;67.60
14000;DHT22;7075;53.574;10.054;2023-07-09T14:38:22;33.20;69.00
14000;DHT22;7075;53.574;10.054;2023-07-09T14:40:51;33.30;66.80
14000;DHT22;7075;53.574;10.054;2023-07-09T14:43:18;33.30;68.00
14000;DHT22;7075;53.574;10.054;2023-07-09T14:45:44;33.30;71.60
14000;DHT22;7075;53.574;10.054;2023-07-09T14:48:16;33.30;70.60
14000;DHT22;7075;53.574;10.054;2023-07-09T14:50:44;33.40;70.40
14000;DHT22;7075;53.574;10.054;2023-07-09T14:53:21;33.40;70.30
14000;DHT22;7075;53.574;10.054;2023-07-09T14:55:49;33.50;70.50
14000;DHT22;7075;53.574;10.054;2023-07-09T14:58:19;33.60;70.60
14000;DHT22;7075;53.574;10.054;2023-07-09T15:00:46;33.70;70.70
14000;DHT22;7075;53.574;10.054;2023-07-09T15:03:25;33.90;70.80
14000;DHT22;7075;53.574;10.054;2023-07-09T15:05:52;33.90;67.90
14000;DHT22;7075;53.574;10.054;2023-07-09T15:08:21;34.10;65.90
14000;DHT22;7075;53.574;10.054;2023-07-09T15:10:52;34.20;65.10
14000;DHT22;7075;53.574;10.054;2023-07-09T15:13:30;34.30;67.20
14000;DHT22;7075;53.574;10.054;2023-07-09T15:15:57;34.30;67.50
14000;DHT22;7075;53.574;10.054;2023-07-09T15:18:23;34.30;67.70
14000;DHT22;7075;53.574;10.054;2023-07-09T15:20:58;34.40;65.10
14000;DHT22;7075;53.574;10.054;2023-07-09T15:23:26;34.40;66.20
14000;DHT22;7075;53.574;10.054;2023-07-09T15:25:52;34.40;65.90
14000;DHT22;7075;53.574;10.054;2023-07-09T15:28:18;34.50;64.00
14000;DHT22;7075;53.574;10.054;2023-07-09T15:30:44;34.50;66.80
14000;DHT22;7075;53.574;10.054;2023-07-09T15:33:15;34.50;67.20
14000;DHT22;7075;53.574;10.054;2023-07-09T15:35:42;34.50;64.90
14000;DHT22;7075;53.574;10.054;2023-07-09T15:38:29;34.50;63.10
14000;DHT22;7075;53.574;10.054;2023-07-09T15:40:56;34.50;62.80
14000;DHT22;7075;53.574;10.054;2023-07-09T15:43:23;34.40;62.30
14000;DHT22;7075;53.574;10.054;2023-07-09T15:45:50;34.40;61.30
14000;DHT22;7075;53.574;10.054;2023-07-09T15:48:33;34.50;61.70
14000;DHT22;7075;53.574;10.054;2023-07-09T15:51:02;34.40;62.20
14000;DHT22;7075;53.574;10.054;2023-07-09T15:53:28;34.30;61.20
14000;DHT22;7075;53.574;10.054;2023-07-09T15:55:59;34.20;62.20
14000;DHT22;7075;53.574;10.054;2023-07-09T15:58:27;34.10;62.70
14000;DHT22;7075;53.574;10.054;2023-07-09T16:00:55;34.00;62.10
14000;DHT22;7075;53.574;10.054;2023-07-09T16:03:21;33.80;62.00
14000;DHT22;7075;53.574;10.054;2023-07-09T16:05:48;33.80;63.30
14000;DHT22;7075;53.574;10.054;2023-07-09T16:08:14;33.60;64.70
14000;DHT22;7075;53.574;10.054;2023-07-09T16:10:41;33.40;64.60
14000;DHT22;7075;53.574;10.054;2023-07-09T16:13:19;33.30;64.20
14000;DHT22;7075;53.574;10.054;2023-07-09T16:15:45;33.30;62.90